Oreana, Idaho
Current Conditions -  °F | °C
As of 7:35 AM on Sunday 23 Nov 2014 (Local Time) from KMAN Reporting Station
Overcast Overcast  
Wind Chill: 32°   Ceiling: 4800
Heat Index: 32°   Visibility: 10mi
Dew Point: 32°   Wind: 3mph
Humidity: 100%   Direction: 300°WNW
Pressure: 30.3"   Gusts: NA
Location:  42.9915°N, 116.705°W
Report Text: KMAN 231435Z AUTO 30003KT 10SM BKN048 OVC060 00/00 A3030 RMK AO1
Loading
Personal Weather Stations






























Interactive Weather Map New forecast layout! Learn more

10-Day Weather Forecast

Advertisements
Track Severe Weather on mobile